sensor_id;sensor_type;location;lat;lon;timestamp;P1;durP1;ratioP1;P2;durP2;ratioP2
20146;SDS011;10234;50.856;15.716;2023-04-24T00:01:45;2.22;;;1.73;;
20146;SDS011;10234;50.856;15.716;2023-04-24T00:04:12;2.95;;;1.60;;
20146;SDS011;10234;50.856;15.716;2023-04-24T00:06:41;4.07;;;1.75;;
20146;SDS011;10234;50.856;15.716;2023-04-24T00:09:08;1.98;;;1.80;;
20146;SDS011;10234;50.856;15.716;2023-04-24T00:11:38;1.33;;;1.23;;
20146;SDS011;10234;50.856;15.716;2023-04-24T00:14:07;3.35;;;1.77;;
20146;SDS011;10234;50.856;15.716;2023-04-24T00:16:34;1.50;;;1.40;;
20146;SDS011;10234;50.856;15.716;2023-04-24T00:19:02;3.33;;;1.50;;
20146;SDS011;10234;50.856;15.716;2023-04-24T00:21:30;5.10;;;1.98;;
20146;SDS011;10234;50.856;15.716;2023-04-24T00:23:57;3.38;;;1.98;;
20146;SDS011;10234;50.856;15.716;2023-04-24T00:26:24;4.65;;;2.28;;
20146;SDS011;10234;50.856;15.716;2023-04-24T00:28:52;6.38;;;2.45;;
20146;SDS011;10234;50.856;15.716;2023-04-24T00:31:19;2.85;;;1.90;;
20146;SDS011;10234;50.856;15.716;2023-04-24T00:33:46;1.65;;;1.38;;
20146;SDS011;10234;50.856;15.716;2023-04-24T00:36:14;3.95;;;1.70;;
20146;SDS011;10234;50.856;15.716;2023-04-24T00:38:41;2.15;;;2.05;;
20146;SDS011;10234;50.856;15.716;2023-04-24T00:41:11;2.05;;;1.90;;
20146;SDS011;10234;50.856;15.716;2023-04-24T00:43:39;3.67;;;1.55;;
20146;SDS011;10234;50.856;15.716;2023-04-24T00:46:06;2.15;;;1.75;;
20146;SDS011;10234;50.856;15.716;2023-04-24T00:48:33;2.45;;;1.80;;
20146;SDS011;10234;50.856;15.716;2023-04-24T00:51:01;1.58;;;1.48;;
20146;SDS011;10234;50.856;15.716;2023-04-24T00:53:29;2.47;;;1.42;;
20146;SDS011;10234;50.856;15.716;2023-04-24T00:55:56;3.17;;;1.83;;
20146;SDS011;10234;50.856;15.716;2023-04-24T00:58:24;1.40;;;1.20;;
20146;SDS011;10234;50.856;15.716;2023-04-24T01:00:51;1.40;;;1.27;;
20146;SDS011;10234;50.856;15.716;2023-04-24T01:03:20;1.92;;;1.77;;
20146;SDS011;10234;50.856;15.716;2023-04-24T01:05:48;1.40;;;1.30;;
20146;SDS011;10234;50.856;15.716;2023-04-24T01:08:16;1.40;;;1.30;;
20146;SDS011;10234;50.856;15.716;2023-04-24T01:10:44;1.33;;;1.20;;
20146;SDS011;10234;50.856;15.716;2023-04-24T01:13:13;1.30;;;1.05;;
20146;SDS011;10234;50.856;15.716;2023-04-24T01:15:40;1.80;;;1.52;;
20146;SDS011;10234;50.856;15.716;2023-04-24T01:18:07;1.73;;;1.52;;
20146;SDS011;10234;50.856;15.716;2023-04-24T01:20:35;1.77;;;1.45;;
20146;SDS011;10234;50.856;15.716;2023-04-24T01:23:06;1.17;;;1.05;;
20146;SDS011;10234;50.856;15.716;2023-04-24T01:25:33;1.25;;;1.17;;
20146;SDS011;10234;50.856;15.716;2023-04-24T01:28:00;1.13;;;1.10;;
20146;SDS011;10234;50.856;15.716;2023-04-24T01:30:27;1.38;;;1.30;;
20146;SDS011;10234;50.856;15.716;2023-04-24T01:32:54;6.43;;;1.58;;
20146;SDS011;10234;50.856;15.716;2023-04-24T01:35:22;1.48;;;1.38;;
20146;SDS011;10234;50.856;15.716;2023-04-24T01:37:48;1.75;;;1.40;;
20146;SDS011;10234;50.856;15.716;2023-04-24T01:40:17;2.13;;;1.80;;
20146;SDS011;10234;50.856;15.716;2023-04-24T01:42:43;1.73;;;1.52;;
20146;SDS011;10234;50.856;15.716;2023-04-24T01:45:12;3.35;;;1.48;;
20146;SDS011;10234;50.856;15.716;2023-04-24T01:47:39;1.95;;;1.65;;
20146;SDS011;10234;50.856;15.716;2023-04-24T01:50:09;1.50;;;1.40;;
20146;SDS011;10234;50.856;15.716;2023-04-24T01:52:36;3.00;;;1.67;;
20146;SDS011;10234;50.856;15.716;2023-04-24T01:55:04;2.47;;;1.60;;
20146;SDS011;10234;50.856;15.716;2023-04-24T01:57:33;2.40;;;1.48;;
20146;SDS011;10234;50.856;15.716;2023-04-24T02:00:00;1.83;;;1.52;;
20146;SDS011;10234;50.856;15.716;2023-04-24T02:02:29;2.40;;;1.45;;
20146;SDS011;10234;50.856;15.716;2023-04-24T02:04:56;2.28;;;2.05;;
20146;SDS011;10234;50.856;15.716;2023-04-24T02:07:23;2.50;;;1.42;;
20146;SDS011;10234;50.856;15.716;2023-04-24T02:09:50;1.33;;;1.23;;
20146;SDS011;10234;50.856;15.716;2023-04-24T02:12:17;3.30;;;1.48;;
20146;SDS011;10234;50.856;15.716;2023-04-24T02:14:46;1.38;;;1.27;;
20146;SDS011;10234;50.856;15.716;2023-04-24T02:17:13;1.83;;;1.73;;
20146;SDS011;10234;50.856;15.716;2023-04-24T02:19:44;2.20;;;1.70;;
20146;SDS011;10234;50.856;15.716;2023-04-24T02:22:11;1.73;;;1.63;;
20146;SDS011;10234;50.856;15.716;2023-04-24T02:24:38;2.22;;;1.52;;
20146;SDS011;10234;50.856;15.716;2023-04-24T02:27:05;2.80;;;1.40;;
20146;SDS011;10234;50.856;15.716;2023-04-24T02:29:32;2.47;;;2.33;;
20146;SDS011;10234;50.856;15.716;2023-04-24T02:32:01;3.00;;;2.10;;
20146;SDS011;10234;50.856;15.716;2023-04-24T02:34:28;1.90;;;1.75;;
20146;SDS011;10234;50.856;15.716;2023-04-24T02:36:55;3.20;;;1.80;;
20146;SDS011;10234;50.856;15.716;2023-04-24T02:39:22;4.50;;;1.98;;
20146;SDS011;10234;50.856;15.716;2023-04-24T02:41:50;2.25;;;1.58;;
20146;SDS011;10234;50.856;15.716;2023-04-24T02:44:17;2.00;;;1.42;;
20146;SDS011;10234;50.856;15.716;2023-04-24T02:46:44;1.65;;;1.55;;
20146;SDS011;10234;50.856;15.716;2023-04-24T02:49:12;1.23;;;1.13;;
20146;SDS011;10234;50.856;15.716;2023-04-24T02:51:39;2.72;;;2.05;;
20146;SDS011;10234;50.856;15.716;2023-04-24T02:54:07;2.53;;;1.85;;
20146;SDS011;10234;50.856;15.716;2023-04-24T02:56:36;1.63;;;1.50;;
20146;SDS011;10234;50.856;15.716;2023-04-24T02:59:03;2.15;;;1.85;;
20146;SDS011;10234;50.856;15.716;2023-04-24T03:01:30;1.70;;;1.55;;
20146;SDS011;10234;50.856;15.716;2023-04-24T03:03:57;2.75;;;2.03;;
20146;SDS011;10234;50.856;15.716;2023-04-24T03:06:25;2.17;;;1.98;;
20146;SDS011;10234;50.856;15.716;2023-04-24T03:08:53;1.70;;;1.58;;
20146;SDS011;10234;50.856;15.716;2023-04-24T03:11:20;2.50;;;2.08;;
20146;SDS011;10234;50.856;15.716;2023-04-24T03:13:47;2.47;;;1.88;;
20146;SDS011;10234;50.856;15.716;2023-04-24T03:16:14;3.30;;;2.70;;
20146;SDS011;10234;50.856;15.716;2023-04-24T03:18:43;3.40;;;2.45;;
20146;SDS011;10234;50.856;15.716;2023-04-24T03:21:09;4.25;;;2.42;;
20146;SDS011;10234;50.856;15.716;2023-04-24T03:23:38;3.40;;;2.30;;
20146;SDS011;10234;50.856;15.716;2023-04-24T03:26:05;2.10;;;1.98;;
20146;SDS011;10234;50.856;15.716;2023-04-24T03:28:31;3.30;;;1.90;;
20146;SDS011;10234;50.856;15.716;2023-04-24T03:30:59;2.78;;;2.17;;
20146;SDS011;10234;50.856;15.716;2023-04-24T03:33:26;6.00;;;2.55;;
20146;SDS011;10234;50.856;15.716;2023-04-24T03:35:52;2.28;;;2.08;;
20146;SDS011;10234;50.856;15.716;2023-04-24T03:38:20;3.95;;;2.55;;
20146;SDS011;10234;50.856;15.716;2023-04-24T03:40:48;4.28;;;2.67;;
20146;SDS011;10234;50.856;15.716;2023-04-24T03:43:15;2.88;;;2.55;;
20146;SDS011;10234;50.856;15.716;2023-04-24T03:45:42;2.83;;;2.10;;
20146;SDS011;10234;50.856;15.716;2023-04-24T03:48:09;2.55;;;2.35;;
20146;SDS011;10234;50.856;15.716;2023-04-24T03:50:36;3.03;;;2.60;;
20146;SDS011;10234;50.856;15.716;2023-04-24T03:53:04;2.55;;;2.15;;
20146;SDS011;10234;50.856;15.716;2023-04-24T03:55:30;2.53;;;2.33;;
20146;SDS011;10234;50.856;15.716;2023-04-24T03:57:59;2.17;;;1.98;;
20146;SDS011;10234;50.856;15.716;2023-04-24T04:00:25;3.55;;;2.47;;
20146;SDS011;10234;50.856;15.716;2023-04-24T04:02:52;4.63;;;2.40;;
20146;SDS011;10234;50.856;15.716;2023-04-24T04:05:20;5.07;;;2.47;;
20146;SDS011;10234;50.856;15.716;2023-04-24T04:07:48;2.65;;;2.45;;
20146;SDS011;10234;50.856;15.716;2023-04-24T04:10:15;2.78;;;2.15;;
20146;SDS011;10234;50.856;15.716;2023-04-24T04:12:45;2.88;;;2.10;;
20146;SDS011;10234;50.856;15.716;2023-04-24T04:15:16;4.72;;;2.85;;
20146;SDS011;10234;50.856;15.716;2023-04-24T04:17:43;3.03;;;2.20;;
20146;SDS011;10234;50.856;15.716;2023-04-24T04:20:10;3.10;;;2.40;;
20146;SDS011;10234;50.856;15.716;2023-04-24T04:22:38;2.42;;;2.15;;
20146;SDS011;10234;50.856;15.716;2023-04-24T04:25:05;3.38;;;2.33;;
20146;SDS011;10234;50.856;15.716;2023-04-24T04:27:33;2.60;;;2.22;;
20146;SDS011;10234;50.856;15.716;2023-04-24T04:30:01;3.88;;;2.17;;
20146;SDS011;10234;50.856;15.716;2023-04-24T04:32:31;2.53;;;2.05;;
20146;SDS011;10234;50.856;15.716;2023-04-24T04:34:59;1.98;;;1.88;;
20146;SDS011;10234;50.856;15.716;2023-04-24T04:37:28;1.70;;;1.55;;
20146;SDS011;10234;50.856;15.716;2023-04-24T04:39:55;2.10;;;1.90;;
20146;SDS011;10234;50.856;15.716;2023-04-24T04:42:23;2.15;;;1.98;;
20146;SDS011;10234;50.856;15.716;2023-04-24T04:44:50;1.80;;;1.65;;
20146;SDS011;10234;50.856;15.716;2023-04-24T04:47:17;3.30;;;1.90;;
20146;SDS011;10234;50.856;15.716;2023-04-24T04:49:46;2.05;;;1.75;;
20146;SDS011;10234;50.856;15.716;2023-04-24T04:52:13;2.10;;;1.90;;
20146;SDS011;10234;50.856;15.716;2023-04-24T04:54:42;1.98;;;1.73;;
20146;SDS011;10234;50.856;15.716;2023-04-24T04:57:09;2.13;;;1.73;;
20146;SDS011;10234;50.856;15.716;2023-04-24T04:59:37;1.33;;;1.20;;
20146;SDS011;10234;50.856;15.716;2023-04-24T05:02:07;2.70;;;1.92;;
20146;SDS011;10234;50.856;15.716;2023-04-24T05:04:34;1.77;;;1.65;;
20146;SDS011;10234;50.856;15.716;2023-04-24T05:07:02;2.28;;;1.48;;
20146;SDS011;10234;50.856;15.716;2023-04-24T05:09:30;1.50;;;1.38;;
20146;SDS011;10234;50.856;15.716;2023-04-24T05:11:57;2.50;;;2.05;;
20146;SDS011;10234;50.856;15.716;2023-04-24T05:14:25;1.38;;;1.27;;
20146;SDS011;10234;50.856;15.716;2023-04-24T05:16:52;1.20;;;1.10;;
20146;SDS011;10234;50.856;15.716;2023-04-24T05:19:19;1.77;;;1.50;;
20146;SDS011;10234;50.856;15.716;2023-04-24T05:21:46;1.48;;;1.30;;
20146;SDS011;10234;50.856;15.716;2023-04-24T05:24:15;1.17;;;1.08;;
20146;SDS011;10234;50.856;15.716;2023-04-24T05:26:42;1.63;;;1.38;;
20146;SDS011;10234;50.856;15.716;2023-04-24T05:29:09;0.98;;;0.93;;
20146;SDS011;10234;50.856;15.716;2023-04-24T05:31:36;1.25;;;1.15;;
20146;SDS011;10234;50.856;15.716;2023-04-24T05:34:06;1.92;;;1.25;;
20146;SDS011;10234;50.856;15.716;2023-04-24T05:36:34;2.38;;;1.08;;
20146;SDS011;10234;50.856;15.716;2023-04-24T05:39:01;1.30;;;1.10;;
20146;SDS011;10234;50.856;15.716;2023-04-24T05:41:31;1.48;;;1.38;;
20146;SDS011;10234;50.856;15.716;2023-04-24T05:43:58;0.90;;;0.90;;
20146;SDS011;10234;50.856;15.716;2023-04-24T05:46:25;2.05;;;1.00;;
20146;SDS011;10234;50.856;15.716;2023-04-24T05:48:52;1.17;;;1.08;;
20146;SDS011;10234;50.856;15.716;2023-04-24T05:51:19;1.20;;;1.00;;
20146;SDS011;10234;50.856;15.716;2023-04-24T05:53:46;1.85;;;1.02;;
20146;SDS011;10234;50.856;15.716;2023-04-24T05:56:13;2.20;;;0.80;;
20146;SDS011;10234;50.856;15.716;2023-04-24T05:58:42;1.05;;;1.05;;
20146;SDS011;10234;50.856;15.716;2023-04-24T06:01:09;1.17;;;1.08;;
20146;SDS011;10234;50.856;15.716;2023-04-24T06:03:36;1.25;;;1.00;;
20146;SDS011;10234;50.856;15.716;2023-04-24T06:06:04;1.25;;;1.00;;
20146;SDS011;10234;50.856;15.716;2023-04-24T06:08:32;1.65;;;1.20;;
20146;SDS011;10234;50.856;15.716;2023-04-24T06:10:59;2.85;;;1.40;;
20146;SDS011;10234;50.856;15.716;2023-04-24T06:13:26;1.65;;;1.20;;
20146;SDS011;10234;50.856;15.716;2023-04-24T06:15:55;1.50;;;1.10;;
20146;SDS011;10234;50.856;15.716;2023-04-24T06:18:21;1.90;;;1.00;;
20146;SDS011;10234;50.856;15.716;2023-04-24T06:20:48;9.07;;;1.60;;
20146;SDS011;10234;50.856;15.716;2023-04-24T06:23:16;1.35;;;1.20;;
20146;SDS011;10234;50.856;15.716;2023-04-24T06:25:43;1.23;;;0.90;;
20146;SDS011;10234;50.856;15.716;2023-04-24T06:28:10;1.42;;;1.20;;
20146;SDS011;10234;50.856;15.716;2023-04-24T06:30:37;1.13;;;1.05;;
20146;SDS011;10234;50.856;15.716;2023-04-24T06:33:06;1.02;;;1.02;;
20146;SDS011;10234;50.856;15.716;2023-04-24T06:35:32;1.20;;;1.10;;
20146;SDS011;10234;50.856;15.716;2023-04-24T06:38:03;1.70;;;1.15;;
20146;SDS011;10234;50.856;15.716;2023-04-24T06:40:30;1.33;;;1.23;;
20146;SDS011;10234;50.856;15.716;2023-04-24T06:42:57;1.27;;;1.00;;
20146;SDS011;10234;50.856;15.716;2023-04-24T06:45:27;1.00;;;0.70;;
20146;SDS011;10234;50.856;15.716;2023-04-24T06:47:54;0.40;;;0.40;;
20146;SDS011;10234;50.856;15.716;2023-04-24T06:50:23;0.45;;;0.40;;
20146;SDS011;10234;50.856;15.716;2023-04-24T06:52:50;0.52;;;0.52;;
20146;SDS011;10234;50.856;15.716;2023-04-24T06:55:17;0.60;;;0.60;;
20146;SDS011;10234;50.856;15.716;2023-04-24T06:57:44;0.70;;;0.70;;
20146;SDS011;10234;50.856;15.716;2023-04-24T07:00:12;0.60;;;0.60;;
20146;SDS011;10234;50.856;15.716;2023-04-24T07:02:39;0.70;;;0.70;;
20146;SDS011;10234;50.856;15.716;2023-04-24T07:05:06;1.30;;;0.55;;
20146;SDS011;10234;50.856;15.716;2023-04-24T07:07:35;1.00;;;0.90;;
20146;SDS011;10234;50.856;15.716;2023-04-24T07:10:03;0.73;;;0.60;;
20146;SDS011;10234;50.856;15.716;2023-04-24T07:12:30;0.60;;;0.50;;
20146;SDS011;10234;50.856;15.716;2023-04-24T07:14:58;0.63;;;0.63;;
20146;SDS011;10234;50.856;15.716;2023-04-24T07:17:25;0.75;;;0.75;;
20146;SDS011;10234;50.856;15.716;2023-04-24T07:19:52;1.20;;;0.80;;
20146;SDS011;10234;50.856;15.716;2023-04-24T07:22:19;0.80;;;0.80;;
20146;SDS011;10234;50.856;15.716;2023-04-24T07:24:47;1.45;;;0.85;;
20146;SDS011;10234;50.856;15.716;2023-04-24T07:27:17;2.22;;;1.30;;
20146;SDS011;10234;50.856;15.716;2023-04-24T07:29:44;1.30;;;1.10;;
20146;SDS011;10234;50.856;15.716;2023-04-24T07:32:11;1.38;;;1.25;;
20146;SDS011;10234;50.856;15.716;2023-04-24T07:34:38;1.40;;;1.30;;
20146;SDS011;10234;50.856;15.716;2023-04-24T07:37:05;2.45;;;1.50;;
20146;SDS011;10234;50.856;15.716;2023-04-24T07:39:33;1.13;;;1.05;;
20146;SDS011;10234;50.856;15.716;2023-04-24T07:42:01;0.82;;;0.82;;
20146;SDS011;10234;50.856;15.716;2023-04-24T07:44:28;0.90;;;0.90;;
20146;SDS011;10234;50.856;15.716;2023-04-24T07:46:55;1.38;;;1.27;;
20146;SDS011;10234;50.856;15.716;2023-04-24T07:49:22;1.90;;;1.20;;
20146;SDS011;10234;50.856;15.716;2023-04-24T07:51:49;1.98;;;1.85;;
20146;SDS011;10234;50.856;15.716;2023-04-24T07:54:17;2.30;;;2.00;;
20146;SDS011;10234;50.856;15.716;2023-04-24T07:56:44;2.17;;;1.75;;
20146;SDS011;10234;50.856;15.716;2023-04-24T07:59:12;1.77;;;1.67;;
20146;SDS011;10234;50.856;15.716;2023-04-24T08:01:39;2.03;;;1.67;;
20146;SDS011;10234;50.856;15.716;2023-04-24T08:04:06;1.80;;;1.67;;
20146;SDS011;10234;50.856;15.716;2023-04-24T08:06:33;1.70;;;1.40;;
20146;SDS011;10234;50.856;15.716;2023-04-24T08:09:00;2.38;;;1.67;;
20146;SDS011;10234;50.856;15.716;2023-04-24T08:11:27;1.23;;;1.13;;
20146;SDS011;10234;50.856;15.716;2023-04-24T08:13:54;1.10;;;1.00;;
20146;SDS011;10234;50.856;15.716;2023-04-24T08:16:23;2.47;;;1.05;;
20146;SDS011;10234;50.856;15.716;2023-04-24T08:18:50;0.80;;;0.80;;
20146;SDS011;10234;50.856;15.716;2023-04-24T08:21:17;0.80;;;0.80;;
20146;SDS011;10234;50.856;15.716;2023-04-24T08:23:45;0.88;;;0.88;;
20146;SDS011;10234;50.856;15.716;2023-04-24T08:26:13;1.23;;;1.00;;
20146;SDS011;10234;50.856;15.716;2023-04-24T08:28:43;2.47;;;0.98;;
20146;SDS011;10234;50.856;15.716;2023-04-24T08:31:09;0.70;;;0.70;;
20146;SDS011;10234;50.856;15.716;2023-04-24T08:33:38;1.00;;;0.88;;
20146;SDS011;10234;50.856;15.716;2023-04-24T08:36:06;0.82;;;0.80;;
20146;SDS011;10234;50.856;15.716;2023-04-24T08:38:33;0.57;;;0.57;;
20146;SDS011;10234;50.856;15.716;2023-04-24T08:41:01;0.70;;;0.70;;
20146;SDS011;10234;50.856;15.716;2023-04-24T08:43:29;1.88;;;1.67;;
20146;SDS011;10234;50.856;15.716;2023-04-24T08:45:56;3.70;;;1.25;;
20146;SDS011;10234;50.856;15.716;2023-04-24T08:48:24;0.70;;;0.70;;
20146;SDS011;10234;50.856;15.716;2023-04-24T08:50:53;2.58;;;1.10;;
20146;SDS011;10234;50.856;15.716;2023-04-24T08:53:21;0.75;;;0.75;;
20146;SDS011;10234;50.856;15.716;2023-04-24T08:55:48;0.70;;;0.70;;
20146;SDS011;10234;50.856;15.716;2023-04-24T08:58:16;1.33;;;0.80;;
20146;SDS011;10234;50.856;15.716;2023-04-24T09:00:44;3.10;;;1.20;;
20146;SDS011;10234;50.856;15.716;2023-04-24T09:03:13;0.82;;;0.82;;
20146;SDS011;10234;50.856;15.716;2023-04-24T09:05:41;1.20;;;1.10;;
20146;SDS011;10234;50.856;15.716;2023-04-24T09:08:12;1.13;;;1.10;;
20146;SDS011;10234;50.856;15.716;2023-04-24T09:10:40;0.80;;;0.80;;
20146;SDS011;10234;50.856;15.716;2023-04-24T09:13:07;0.70;;;0.70;;
20146;SDS011;10234;50.856;15.716;2023-04-24T09:15:35;1.08;;;0.90;;
20146;SDS011;10234;50.856;15.716;2023-04-24T09:18:02;1.00;;;0.90;;
20146;SDS011;10234;50.856;15.716;2023-04-24T09:20:29;1.08;;;0.85;;
20146;SDS011;10234;50.856;15.716;2023-04-24T09:22:56;0.70;;;0.70;;
20146;SDS011;10234;50.856;15.716;2023-04-24T09:25:26;0.90;;;0.90;;
20146;SDS011;10234;50.856;15.716;2023-04-24T09:28:00;1.42;;;1.00;;
20146;SDS011;10234;50.856;15.716;2023-04-24T09:30:28;0.88;;;0.70;;
20146;SDS011;10234;50.856;15.716;2023-04-24T09:35:39;0.50;;;0.50;;
20146;SDS011;10234;50.856;15.716;2023-04-24T09:38:08;1.27;;;0.50;;
20146;SDS011;10234;50.856;15.716;2023-04-24T09:40:37;0.57;;;0.45;;
20146;SDS011;10234;50.856;15.716;2023-04-24T09:43:03;5.82;;;2.50;;
20146;SDS011;10234;50.856;15.716;2023-04-24T09:45:35;0.65;;;0.50;;
20146;SDS011;10234;50.856;15.716;2023-04-24T09:48:02;1.40;;;0.85;;
20146;SDS011;10234;50.856;15.716;2023-04-24T09:50:30;0.60;;;0.60;;
20146;SDS011;10234;50.856;15.716;2023-04-24T09:53:01;1.27;;;0.80;;
20146;SDS011;10234;50.856;15.716;2023-04-24T09:55:29;0.40;;;0.40;;
20146;SDS011;10234;50.856;15.716;2023-04-24T09:57:58;0.60;;;0.52;;
20146;SDS011;10234;50.856;15.716;2023-04-24T10:00:27;0.68;;;0.50;;
20146;SDS011;10234;50.856;15.716;2023-04-24T10:02:57;0.65;;;0.65;;
20146;SDS011;10234;50.856;15.716;2023-04-24T10:05:27;0.55;;;0.55;;
20146;SDS011;10234;50.856;15.716;2023-04-24T10:08:01;1.23;;;0.75;;
20146;SDS011;10234;50.856;15.716;2023-04-24T10:10:29;1.23;;;0.93;;
20146;SDS011;10234;50.856;15.716;2023-04-24T10:12:56;0.70;;;0.50;;
20146;SDS011;10234;50.856;15.716;2023-04-24T10:15:25;0.35;;;0.35;;
20146;SDS011;10234;50.856;15.716;2023-04-24T10:17:53;0.60;;;0.35;;
20146;SDS011;10234;50.856;15.716;2023-04-24T10:20:20;0.40;;;0.40;;
20146;SDS011;10234;50.856;15.716;2023-04-24T10:22:49;0.50;;;0.50;;
20146;SDS011;10234;50.856;15.716;2023-04-24T10:25:16;0.65;;;0.65;;
20146;SDS011;10234;50.856;15.716;2023-04-24T10:27:46;0.40;;;0.40;;
20146;SDS011;10234;50.856;15.716;2023-04-24T10:30:13;2.58;;;0.70;;
20146;SDS011;10234;50.856;15.716;2023-04-24T10:32:42;0.50;;;0.50;;
20146;SDS011;10234;50.856;15.716;2023-04-24T10:35:09;0.70;;;0.50;;
20146;SDS011;10234;50.856;15.716;2023-04-24T10:37:38;0.50;;;0.50;;
20146;SDS011;10234;50.856;15.716;2023-04-24T10:40:07;0.52;;;0.50;;
20146;SDS011;10234;50.856;15.716;2023-04-24T10:42:35;0.40;;;0.40;;
20146;SDS011;10234;50.856;15.716;2023-04-24T10:45:06;0.75;;;0.68;;
20146;SDS011;10234;50.856;15.716;2023-04-24T10:47:44;0.63;;;0.63;;
20146;SDS011;10234;50.856;15.716;2023-04-24T10:50:17;1.00;;;0.68;;
20146;SDS011;10234;50.856;15.716;2023-04-24T10:52:45;0.60;;;0.60;;
20146;SDS011;10234;50.856;15.716;2023-04-24T10:55:14;0.50;;;0.50;;
20146;SDS011;10234;50.856;15.716;2023-04-24T11:00:29;0.40;;;0.40;;
20146;SDS011;10234;50.856;15.716;2023-04-24T11:02:57;0.50;;;0.50;;
20146;SDS011;10234;50.856;15.716;2023-04-24T11:08:25;2.38;;;0.43;;
20146;SDS011;10234;50.856;15.716;2023-04-24T11:10:54;0.50;;;0.50;;
20146;SDS011;10234;50.856;15.716;2023-04-24T11:13:26;0.50;;;0.50;;
20146;SDS011;10234;50.856;15.716;2023-04-24T11:16:15;1.30;;;0.50;;
20146;SDS011;10234;50.856;15.716;2023-04-24T11:18:43;0.50;;;0.50;;
20146;SDS011;10234;50.856;15.716;2023-04-24T11:21:16;0.43;;;0.43;;
20146;SDS011;10234;50.856;15.716;2023-04-24T11:23:44;0.47;;;0.40;;
20146;SDS011;10234;50.856;15.716;2023-04-24T11:26:12;0.50;;;0.50;;
20146;SDS011;10234;50.856;15.716;2023-04-24T11:28:48;1.00;;;0.43;;
20146;SDS011;10234;50.856;15.716;2023-04-24T11:31:35;0.20;;;0.20;;
20146;SDS011;10234;50.856;15.716;2023-04-24T11:34:09;0.50;;;0.50;;
20146;SDS011;10234;50.856;15.716;2023-04-24T11:36:37;0.57;;;0.57;;
20146;SDS011;10234;50.856;15.716;2023-04-24T11:39:04;0.80;;;0.47;;
20146;SDS011;10234;50.856;15.716;2023-04-24T11:41:31;2.55;;;0.50;;
20146;SDS011;10234;50.856;15.716;2023-04-24T11:43:58;0.68;;;0.68;;
20146;SDS011;10234;50.856;15.716;2023-04-24T11:46:29;0.52;;;0.40;;
20146;SDS011;10234;50.856;15.716;2023-04-24T11:48:57;0.75;;;0.63;;
20146;SDS011;10234;50.856;15.716;2023-04-24T11:51:26;0.52;;;0.50;;
20146;SDS011;10234;50.856;15.716;2023-04-24T11:53:53;0.60;;;0.43;;
20146;SDS011;10234;50.856;15.716;2023-04-24T11:56:21;0.85;;;0.65;;
20146;SDS011;10234;50.856;15.716;2023-04-24T11:58:48;0.50;;;0.50;;
20146;SDS011;10234;50.856;15.716;2023-04-24T12:01:15;0.52;;;0.52;;
20146;SDS011;10234;50.856;15.716;2023-04-24T12:03:46;0.50;;;0.50;;
20146;SDS011;10234;50.856;15.716;2023-04-24T12:06:15;0.40;;;0.40;;
20146;SDS011;10234;50.856;15.716;2023-04-24T12:08:43;0.40;;;0.40;;
20146;SDS011;10234;50.856;15.716;2023-04-24T12:11:14;0.30;;;0.30;;
20146;SDS011;10234;50.856;15.716;2023-04-24T12:13:42;0.50;;;0.50;;
20146;SDS011;10234;50.856;15.716;2023-04-24T12:16:10;0.52;;;0.52;;
20146;SDS011;10234;50.856;15.716;2023-04-24T12:18:41;0.47;;;0.40;;
20146;SDS011;10234;50.856;15.716;2023-04-24T12:21:15;0.50;;;0.50;;
20146;SDS011;10234;50.856;15.716;2023-04-24T12:23:44;0.80;;;0.80;;
20146;SDS011;10234;50.856;15.716;2023-04-24T12:26:11;0.65;;;0.57;;
20146;SDS011;10234;50.856;15.716;2023-04-24T12:28:38;0.93;;;0.50;;
20146;SDS011;10234;50.856;15.716;2023-04-24T12:31:06;0.90;;;0.80;;
20146;SDS011;10234;50.856;15.716;2023-04-24T12:33:34;0.63;;;0.63;;
20146;SDS011;10234;50.856;15.716;2023-04-24T12:36:01;1.30;;;1.00;;
20146;SDS011;10234;50.856;15.716;2023-04-24T12:38:28;0.63;;;0.50;;
20146;SDS011;10234;50.856;15.716;2023-04-24T12:41:04;0.93;;;0.77;;
20146;SDS011;10234;50.856;15.716;2023-04-24T12:43:31;0.70;;;0.70;;
20146;SDS011;10234;50.856;15.716;2023-04-24T12:45:59;1.15;;;1.00;;
20146;SDS011;10234;50.856;15.716;2023-04-24T12:48:26;0.60;;;0.60;;
20146;SDS011;10234;50.856;15.716;2023-04-24T12:50:53;0.82;;;0.82;;
20146;SDS011;10234;50.856;15.716;2023-04-24T12:53:21;0.63;;;0.63;;
20146;SDS011;10234;50.856;15.716;2023-04-24T12:55:51;0.50;;;0.50;;
20146;SDS011;10234;50.856;15.716;2023-04-24T12:58:20;0.70;;;0.70;;
20146;SDS011;10234;50.856;15.716;2023-04-24T13:00:47;1.02;;;0.77;;
20146;SDS011;10234;50.856;15.716;2023-04-24T13:03:14;2.00;;;0.98;;
20146;SDS011;10234;50.856;15.716;2023-04-24T13:05:42;0.85;;;0.85;;
20146;SDS011;10234;50.856;15.716;2023-04-24T13:08:09;0.57;;;0.57;;
20146;SDS011;10234;50.856;15.716;2023-04-24T13:10:37;0.82;;;0.77;;
20146;SDS011;10234;50.856;15.716;2023-04-24T13:13:05;0.50;;;0.50;;
20146;SDS011;10234;50.856;15.716;2023-04-24T13:15:33;0.70;;;0.70;;
20146;SDS011;10234;50.856;15.716;2023-04-24T13:18:00;1.13;;;0.77;;
20146;SDS011;10234;50.856;15.716;2023-04-24T13:20:27;0.63;;;0.63;;
20146;SDS011;10234;50.856;15.716;2023-04-24T13:22:55;1.20;;;0.57;;
20146;SDS011;10234;50.856;15.716;2023-04-24T13:25:22;0.60;;;0.60;;
20146;SDS011;10234;50.856;15.716;2023-04-24T13:27:50;1.30;;;0.70;;
20146;SDS011;10234;50.856;15.716;2023-04-24T13:30:17;0.95;;;0.80;;
20146;SDS011;10234;50.856;15.716;2023-04-24T13:32:45;1.10;;;0.93;;
20146;SDS011;10234;50.856;15.716;2023-04-24T13:35:12;2.45;;;1.20;;
20146;SDS011;10234;50.856;15.716;2023-04-24T13:37:39;1.38;;;0.80;;
20146;SDS011;10234;50.856;15.716;2023-04-24T13:40:07;0.80;;;0.80;;
20146;SDS011;10234;50.856;15.716;2023-04-24T13:42:34;0.80;;;0.80;;
20146;SDS011;10234;50.856;15.716;2023-04-24T13:45:04;0.70;;;0.70;;
20146;SDS011;10234;50.856;15.716;2023-04-24T13:47:31;0.70;;;0.70;;
20146;SDS011;10234;50.856;15.716;2023-04-24T13:50:00;3.08;;;1.17;;
20146;SDS011;10234;50.856;15.716;2023-04-24T13:52:27;0.98;;;0.98;;
20146;SDS011;10234;50.856;15.716;2023-04-24T13:54:54;1.25;;;0.90;;
20146;SDS011;10234;50.856;15.716;2023-04-24T13:57:21;2.78;;;1.10;;
20146;SDS011;10234;50.856;15.716;2023-04-24T13:59:48;2.13;;;1.30;;
20146;SDS011;10234;50.856;15.716;2023-04-24T14:02:15;0.90;;;0.90;;
20146;SDS011;10234;50.856;15.716;2023-04-24T14:04:42;0.95;;;0.93;;
20146;SDS011;10234;50.856;15.716;2023-04-24T14:07:11;0.98;;;0.88;;
20146;SDS011;10234;50.856;15.716;2023-04-24T14:09:38;4.40;;;1.05;;
20146;SDS011;10234;50.856;15.716;2023-04-24T14:12:05;1.00;;;0.90;;
20146;SDS011;10234;50.856;15.716;2023-04-24T14:14:32;0.85;;;0.77;;
20146;SDS011;10234;50.856;15.716;2023-04-24T14:17:00;1.30;;;1.10;;
20146;SDS011;10234;50.856;15.716;2023-04-24T14:19:27;1.10;;;1.10;;
20146;SDS011;10234;50.856;15.716;2023-04-24T14:21:54;1.33;;;0.90;;
20146;SDS011;10234;50.856;15.716;2023-04-24T14:24:24;0.70;;;0.70;;
20146;SDS011;10234;50.856;15.716;2023-04-24T14:26:53;0.90;;;0.80;;
20146;SDS011;10234;50.856;15.716;2023-04-24T14:29:21;1.02;;;0.90;;
20146;SDS011;10234;50.856;15.716;2023-04-24T14:31:48;0.80;;;0.80;;
20146;SDS011;10234;50.856;15.716;2023-04-24T14:34:15;1.52;;;0.98;;
20146;SDS011;10234;50.856;15.716;2023-04-24T14:36:42;2.15;;;1.08;;
20146;SDS011;10234;50.856;15.716;2023-04-24T14:39:09;1.77;;;1.48;;
20146;SDS011;10234;50.856;15.716;2023-04-24T14:41:38;1.75;;;1.27;;
20146;SDS011;10234;50.856;15.716;2023-04-24T14:44:05;1.65;;;1.33;;
20146;SDS011;10234;50.856;15.716;2023-04-24T14:46:32;1.98;;;1.67;;